Llanharan, United Kingdom
Current Conditions -  °F | °C
As of 7:50 PM on Wednesday 28 Jan 2015 (Local Time) from EGDX Reporting Station
Rain Showers Rain Showers  
Wind Chill: 30°   Ceiling: Unl
Heat Index: 39°   Visibility: 6mi
Dew Point: 32°   Wind: 20mph
Humidity: 75%   Direction: 300°WNW
Pressure: 29.65"   Gusts: 35mph
Location:  51.54°N, 3.44°W
Report Text: EGDX 281950Z AUTO 30017G30KT 9999 -SHRA FEW026/// SCT044/// 04/00 Q1004
Loading
Personal Weather Stations






























Interactive Weather Map New forecast layout! Learn more

10-Day Weather Forecast

Advertisements
Track Severe Weather on mobile